Flight Track Log - Related Links

Times and Time Zones

All times are in EST time to prevent confusion due to time zone crossing. See the PDT4226 flight status page for this flight to view local times or setup timezone preferences in your user account.

Time Position Orientation Groundspeed Altitude Reporting Facility
EST Latitude Longitude Course Direction KTS MPH feet Rate Location/Type
Fri 11:55:30 AM 39.9000 -75.2333 270° West 111 128 700  Level Philadelphia TRACON
Fri 11:56:00 AM 39.9000 -75.2667 270° West 115 132 1,400 1,348 Climbing Philadelphia TRACON
Fri 11:57:48 AM 39.9167 -75.3422 286° West 148 170 3,800 1,357 Climbing New York Center
Fri 11:58:48 AM 39.9272 -75.3889 286° West 143 165 5,200 1,450 Climbing New York Center
Fri 11:59:48 AM 39.9378 -75.4383 286° West 143 165 6,700 1,400 Climbing New York Center
Fri 12:00:48 PM 39.9728 -75.4514 344° North 127 146 8,000 1,150 Climbing New York Center
Fri 12:01:48 PM 40.0200 -75.4708 342° North 148 170 9,000 500 Climbing New York Center
Fri 12:02:48 PM 40.0547 -75.4869 340° North 153 176 9,000  Level New York Center
Fri 12:03:48 PM 40.0994 -75.5117 337° Northwest 153 176 9,000 100 Level New York Center
Fri 12:04:48 PM 40.1383 -75.5306 340° North 153 176 9,200 650 Climbing New York Center
Fri 12:05:48 PM 40.1833 -75.5500 342° North 153 176 10,300 850 Climbing New York Center
Fri 12:06:48 PM 40.2267 -75.5667 344° North 168 193 10,900 750 Climbing New York Center
Fri 12:07:48 PM 40.2642 -75.6153 315° West 163 188 11,800 500 Climbing New York Center
Fri 12:08:48 PM 40.3131 -75.6406 338° Northwest 173 199 11,900 50 Climbing New York Center
Fri 12:09:48 PM 40.3639 -75.6742 333° Northwest 198 228 11,900  Level New York Center
Fri 12:10:48 PM 40.4147 -75.7022 337° Northwest 217 250 11,900  Level New York Center
Fri 12:11:48 PM 40.4719 -75.7308 339° North 217 250 11,900  Level New York Center
Fri 12:12:48 PM 40.5308 -75.7706 333° Northwest 217 250 11,900  Level New York Center
Fri 12:13:48 PM 40.5897 -75.8022 338° Northwest 217 250 11,900  Level New York Center
Fri 12:14:48 PM 40.6469 -75.8339 337° Northwest 217 250 11,900  Level New York Center
Fri 12:15:48 PM 40.6953 -75.8675 332° Northwest 222 255 11,900  Level New York Center
Fri 12:16:48 PM 40.7478 -75.9097 329° Northwest 217 250 11,900 -50 Level New York Center
Fri 12:17:48 PM 40.8128 -75.9450 338° Northwest 217 250 11,800 -50 Descending New York Center
Fri 12:18:48 PM 40.8675 -75.9819 333° Northwest 217 250 11,800  Level New York Center
Fri 12:19:48 PM 40.9242 -76.0192 334° Northwest 217 250 11,800  Level New York Center
Fri 12:20:48 PM 40.9792 -76.0508 337° Northwest 217 250 11,800  Level New York Center
Fri 12:21:48 PM 41.0339 -76.0856 334° Northwest 217 250 11,800  Level New York Center
Fri 12:22:48 PM 41.0903 -76.1231 333° Northwest 217 250 11,800  Level New York Center
Fri 12:23:48 PM 41.1453 -76.1547 337° Northwest 217 250 11,800  Level New York Center
Fri 12:24:48 PM 41.2019 -76.1897 335° Northwest 217 250 11,800 100 Level New York Center
Fri 12:25:48 PM 41.2594 -76.2081 347° North 217 250 12,000 100 Climbing New York Center
Fri 12:26:48 PM 41.3222 -76.1994 North 211 243 12,000 50 Level New York Center
Fri 12:27:48 PM 41.3869 -76.1989 360° North 217 250 12,100  Climbing New York Center
Fri 12:28:48 PM 41.4428 -76.2064 354° North 222 255 12,000 -50 Descending New York Center
Fri 12:29:48 PM 41.5081 -76.1922 North 228 262 12,000 -250 Level New York Center
Fri 12:30:48 PM 41.5731 -76.1808 North 228 262 11,500 -650 Descending New York Center
Fri 12:31:48 PM 41.6439 -76.1811 360° North 241 277 10,700 -750 Descending New York Center
Fri 12:32:48 PM 41.7128 -76.1811 360° North 241 277 10,000 -750 Descending New York Center
Fri 12:33:48 PM 41.7817 -76.1756 North 246 283 9,200 -850 Descending New York Center
Fri 12:34:48 PM 41.8531 -76.1647 North 251 289 8,300 -750 Descending New York Center
Fri 12:35:48 PM 41.9203 -76.1506 North 251 289 7,700 -700 Descending New York Center
Fri 12:36:48 PM 41.9844 -76.1111 25° Northeast 244 281 6,900 -950 Descending New York Center
Fri 12:37:48 PM 42.0444 -76.0742 25° Northeast 244 281 5,800 -1,150 Descending New York Center
Fri 12:38:48 PM 42.0867 -76.0131 47° Northeast 226 260 4,600 -1,050 Descending New York Center
Fri 12:39:48 PM 42.1183 -75.9569 53° Northeast 203 234 3,700 -800 Descending New York Center
Fri 12:40:48 PM 42.1583 -75.9433 14° North 178 205 3,000 -800 Descending New York Center
Fri 12:41:48 PM 42.1908 -75.9628 336° Northwest 133 153 2,100 -900 Descending New York Center

Login

Don't have an account? Register now (free) for customized features, flight alerts, and more!